Time;durP1;ratioP1;P1;durP2;ratioP2;P2;SDS_P1;SDS_P2;PMS_P1;PMS_P2;Temp;Humidity;BMP_temperature;BMP_pressure;BME280_temperature;BME280_humidity;BME280_pressure;Samples;Min_cycle;Max_cycle;Signal;HPM_P1;HPM_P2
2023/06/01 00:01:26;;;;;;;6.78;4.80;;;15.50;98.60;;;;;;4591297;19;20361;-27
2023/06/01 00:02:58;;;;;;;6.25;4.10;;;15.50;98.60;;;;;;4589952;19;20022;-24
2023/06/01 00:04:29;;;;;;;6.72;4.28;;;15.50;98.20;;;;;;4590918;19;20066;-24
2023/06/01 00:06:01;;;;;;;6.03;3.45;;;15.50;98.30;;;;;;4590850;19;20023;-28
2023/06/01 00:07:32;;;;;;;7.63;4.93;;;15.50;99.00;;;;;;4589195;19;20011;-26
2023/06/01 00:09:04;;;;;;;6.78;4.30;;;15.50;98.30;;;;;;4590721;19;20362;-23
2023/06/01 00:10:35;;;;;;;;;;;15.50;99.00;;;;;;4592013;19;20051;-23
2023/06/01 00:12:07;;;;;;;6.93;3.63;;;15.40;98.60;;;;;;4590672;19;19921;-29
2023/06/01 00:13:38;;;;;;;5.90;4.07;;;15.50;99.00;;;;;;4591303;19;20027;-26
2023/06/01 00:15:10;;;;;;;7.28;4.30;;;15.40;99.30;;;;;;4589369;19;20015;-25
2023/06/01 00:16:44;;;;;;;6.70;4.35;;;15.40;99.00;;;;;;4590462;19;20018;-23
2023/06/01 00:18:16;;;;;;;7.28;3.90;;;15.40;99.00;;;;;;4590772;19;20022;-24
2023/06/01 00:19:52;;;;;;;;;;;15.40;99.20;;;;;;4591681;19;20026;-24
2023/06/01 00:21:31;;;;;;;6.78;4.00;;;15.40;98.80;;;;;;4591065;19;20349;-24
2023/06/01 00:23:08;;;;;;;6.43;3.72;;;15.40;99.20;;;;;;4591517;19;20382;-24
2023/06/01 00:24:43;;;;;;;6.88;4.57;;;15.40;99.00;;;;;;4588458;19;20015;-27
2023/06/01 00:26:15;;;;;;;9.65;6.07;;;15.40;99.40;;;;;;4590302;19;20415;-28
2023/06/01 00:27:46;;;;;;;9.65;5.97;;;15.40;99.40;;;;;;4591119;19;20031;-24
2023/06/01 00:29:18;;;;;;;;;;;15.40;99.20;;;;;;4591769;19;20027;-28
2023/06/01 00:30:49;;;;;;;7.32;4.75;;;15.30;99.40;;;;;;4590575;19;19918;-23
2023/06/01 00:32:20;;;;;;;7.20;4.40;;;15.30;99.70;;;;;;4590809;19;20007;-23
2023/06/01 00:33:52;;;;;;;8.43;5.03;;;15.30;99.80;;;;;;4590466;19;20041;-25
2023/06/01 00:35:25;;;;;;;8.40;5.17;;;15.30;99.90;;;;;;4590593;19;20022;-25
2023/06/01 00:36:56;;;;;;;7.18;4.50;;;15.30;99.50;;;;;;4589263;19;20011;-25
2023/06/01 00:38:27;;;;;;;;;;;15.30;99.80;;;;;;4590488;19;20018;-23
2023/06/01 00:39:59;;;;;;;9.27;5.93;;;15.30;99.50;;;;;;4590443;19;19922;-30
2023/06/01 00:41:32;;;;;;;8.82;5.03;;;15.30;99.90;;;;;;4590236;19;20410;-27
2023/06/01 00:43:04;;;;;;;5.70;4.07;;;15.30;99.90;;;;;;4590434;19;20010;-25
2023/06/01 00:44:37;;;;;;;7.40;3.72;;;15.30;99.90;;;;;;4589178;19;20017;-24
2023/06/01 00:46:09;;;;;;;5.90;3.85;;;15.20;99.90;;;;;;4590356;19;20014;-28
2023/06/01 00:47:42;;;;;;;7.20;4.10;;;15.20;99.90;;;;;;4589002;19;20022;-30
2023/06/01 00:49:13;;;;;;;7.30;4.00;;;15.20;99.70;;;;;;4589799;19;20035;-28
2023/06/01 00:50:44;;;;;;;7.20;4.38;;;15.20;99.80;;;;;;4590218;19;20006;-24
2023/06/01 00:52:15;;;;;;;;;;;15.20;99.80;;;;;;4590350;19;20014;-28
2023/06/01 00:53:47;;;;;;;9.38;4.13;;;15.20;99.90;;;;;;4587559;19;20345;-27
2023/06/01 00:55:18;;;;;;;9.48;6.38;;;15.20;99.60;;;;;;4587705;19;20010;-26
2023/06/01 00:56:50;;;;;;;12.23;8.05;;;15.20;99.70;;;;;;4589318;19;20527;-24
2023/06/01 00:58:21;;;;;;;12.88;9.48;;;15.10;99.80;;;;;;4589013;19;20014;-24
2023/06/01 00:59:54;;;;;;;14.10;10.00;;;15.10;99.90;;;;;;4587619;19;20019;-27
2023/06/01 01:01:26;;;;;;;13.30;8.95;;;15.10;99.90;;;;;;4588488;19;20020;-25
2023/06/01 01:03:00;;;;;;;12.73;7.80;;;15.10;99.90;;;;;;4589603;19;20017;-23
2023/06/01 01:04:32;;;;;;;12.20;6.90;;;15.10;99.90;;;;;;4589666;19;20014;-24
2023/06/01 01:06:28;;;;;;;9.67;6.03;;;15.10;99.90;;;;;;4589819;19;20019;-29
2023/06/01 01:08:28;;;;;;;22.27;14.90;;;15.10;99.90;;;;;;4587514;19;20030;-26
2023/06/01 01:10:05;;;;;;;24.07;14.60;;;15.10;99.90;;;;;;4587592;19;20116;-24
2023/06/01 01:11:37;;;;;;;23.33;14.50;;;15.10;99.90;;;;;;4587744;19;20007;-24
2023/06/01 01:13:40;;;;;;;20.93;13.40;;;15.00;99.90;;;;;;4587550;19;20110;-24
2023/06/01 01:15:28;;;;;;;16.98;10.70;;;15.00;99.90;;;;;;4587294;19;20011;-28
2023/06/01 01:17:11;;;;;;;16.35;10.00;;;15.00;99.90;;;;;;4587613;19;20024;-23
2023/06/01 01:18:46;;;;;;;14.57;10.00;;;15.00;99.90;;;;;;4587566;19;20070;-24
2023/06/01 01:20:22;;;;;;;15.97;9.87;;;15.00;99.90;;;;;;4587143;19;20013;-24
2023/06/01 01:22:36;;;;;;;14.60;9.32;;;15.00;99.90;;;;;;4587305;19;20013;-30
2023/06/01 01:24:43;;;;;;;16.70;10.70;;;15.00;99.90;;;;;;4587249;19;20353;-27
2023/06/01 01:26:30;;;;;;;18.23;11.33;;;14.90;99.90;;;;;;4587256;19;20018;-26
2023/06/01 01:28:39;;;;;;;16.30;10.03;;;15.00;99.90;;;;;;4587445;19;20002;-25
2023/06/01 01:30:10;;;;;;;16.73;9.88;;;14.90;99.90;;;;;;4587412;19;20006;-24
2023/06/01 01:31:41;;;;;;;19.35;11.45;;;14.90;99.90;;;;;;4587784;19;20124;-27
2023/06/01 01:33:12;;;;;;;17.55;11.00;;;14.90;99.90;;;;;;4587248;19;20022;-29
2023/06/01 01:34:43;;;;;;;16.98;9.48;;;14.90;99.90;;;;;;4586727;19;20027;-27
2023/06/01 01:36:16;;;;;;;15.33;9.93;;;14.90;99.90;;;;;;4587210;19;20025;-28
2023/06/01 01:37:51;;;;;;;15.80;8.73;;;14.90;99.90;;;;;;4586977;19;20018;-24
2023/06/01 01:39:24;;;;;;;13.50;9.13;;;14.90;99.90;;;;;;4587062;19;20010;-28
2023/06/01 01:40:56;;;;;;;13.87;8.23;;;14.80;99.90;;;;;;4586856;19;20106;-26
2023/06/01 01:42:28;;;;;;;12.65;7.45;;;14.80;99.90;;;;;;4587331;19;20460;-26
2023/06/01 01:43:59;;;;;;;10.65;6.97;;;14.80;99.90;;;;;;4586872;19;20021;-23
2023/06/01 01:45:31;;;;;;;11.80;7.35;;;14.80;99.90;;;;;;4587003;19;20052;-29
2023/06/01 01:47:12;;;;;;;11.63;7.18;;;14.80;99.90;;;;;;4587029;19;20011;-27
2023/06/01 01:49:12;;;;;;;11.53;6.60;;;14.80;99.90;;;;;;4586754;19;20033;-25
2023/06/01 01:50:50;;;;;;;10.35;6.60;;;14.80;99.90;;;;;;4587757;19;19998;-25
2023/06/01 01:52:25;;;;;;;10.33;6.13;;;14.80;99.90;;;;;;4586889;19;20020;-25
2023/06/01 01:53:58;;;;;;;10.23;6.80;;;14.80;99.90;;;;;;4586876;19;20010;-25
2023/06/01 01:55:33;;;;;;;12.07;7.40;;;14.80;99.90;;;;;;4585887;19;20014;-25
2023/06/01 01:57:05;;;;;;;11.13;7.20;;;14.80;99.90;;;;;;4587426;19;20073;-24
2023/06/01 01:58:38;;;;;;;10.10;7.20;;;14.80;99.90;;;;;;4586689;19;20346;-24
2023/06/01 02:00:11;;;;;;;;;;;14.80;99.90;;;;;;4587761;19;20086;-24
2023/06/01 02:01:44;;;;;;;9.47;6.00;;;14.80;99.90;;;;;;4587667;19;19911;-22
2023/06/01 02:03:17;;;;;;;11.20;6.77;;;14.80;99.90;;;;;;4589080;19;20480;-25
2023/06/01 02:04:48;;;;;;;;;;;14.80;99.90;;;;;;4589799;19;20014;-24
2023/06/01 02:06:19;;;;;;;10.20;6.30;;;14.80;99.90;;;;;;4589362;19;20027;-24
2023/06/01 02:07:52;;;;;;;10.10;5.80;;;14.80;99.90;;;;;;4586179;19;20015;-25
2023/06/01 02:09:25;;;;;;;9.83;6.30;;;14.70;99.90;;;;;;4587443;19;20013;-24
2023/06/01 02:10:56;;;;;;;9.35;6.38;;;14.70;99.90;;;;;;4588330;19;20029;-24
2023/06/01 02:12:27;;;;;;;10.27;6.25;;;14.70;99.90;;;;;;4591980;19;20027;-24
2023/06/01 02:14:00;;;;;;;12.03;6.00;;;14.70;99.90;;;;;;4592511;19;20030;-28
2023/06/01 02:15:31;;;;;;;11.75;7.40;;;14.70;99.90;;;;;;4592115;19;20044;-23
2023/06/01 02:17:03;;;;;;;11.98;6.55;;;14.70;99.90;;;;;;4591913;19;20083;-26
2023/06/01 02:18:38;;;;;;;11.10;7.10;;;14.70;99.90;;;;;;4593386;19;20003;-24
2023/06/01 02:20:10;;;;;;;11.00;6.83;;;14.70;99.90;;;;;;4593418;19;20017;-22
2023/06/01 02:21:43;;;;;;;11.87;6.70;;;14.70;99.90;;;;;;4593805;19;20070;-25
2023/06/01 02:23:16;;;;;;;11.93;7.70;;;14.70;99.90;;;;;;4591946;19;20007;-27
2023/06/01 02:24:49;;;;;;;12.80;7.83;;;14.70;99.90;;;;;;4592490;19;20349;-24
2023/06/01 02:26:22;;;;;;;11.60;7.70;;;14.70;99.90;;;;;;4593742;19;20077;-23
2023/06/01 02:27:53;;;;;;;;;;;14.70;99.90;;;;;;4592944;19;20021;-29
2023/06/01 02:29:24;;;;;;;11.03;7.00;;;14.70;99.90;;;;;;4591859;19;19915;-25
2023/06/01 02:30:57;;;;;;;11.10;7.20;;;14.70;99.90;;;;;;4592601;19;20020;-25
2023/06/01 02:32:30;;;;;;;10.43;6.65;;;14.70;99.90;;;;;;4593894;19;20478;-27
2023/06/01 02:34:01;;;;;;;9.63;6.00;;;14.70;99.90;;;;;;4592862;19;20018;-24
2023/06/01 02:35:33;;;;;;;9.93;7.03;;;14.70;99.90;;;;;;4590758;19;20021;-25
2023/06/01 02:37:06;;;;;;;;;;;14.70;99.90;;;;;;4593610;19;20018;-24
2023/06/01 02:38:40;;;;;;;9.70;6.35;;;14.70;99.90;;;;;;4593134;19;19919;-26
2023/06/01 02:40:12;;;;;;;9.50;6.13;;;14.70;99.90;;;;;;4592677;19;20038;-27
2023/06/01 02:41:44;;;;;;;10.33;6.50;;;14.70;99.90;;;;;;4593169;19;20031;-26
2023/06/01 02:43:15;;;;;;;8.85;6.25;;;14.70;99.90;;;;;;4592876;19;20010;-27
2023/06/01 02:44:48;;;;;;;7.13;5.30;;;14.70;99.90;;;;;;4592217;19;20018;-23
2023/06/01 02:46:19;;;;;;;7.18;5.20;;;14.70;99.90;;;;;;4592130;19;20011;-24
2023/06/01 02:47:50;;;;;;;8.80;6.25;;;14.70;99.90;;;;;;4591793;19;20056;-27
2023/06/01 02:49:22;;;;;;;8.55;5.43;;;14.70;99.90;;;;;;4591836;19;20380;-24
2023/06/01 02:50:53;;;;;;;8.98;5.78;;;14.70;99.90;;;;;;4592944;19;20007;-26
2023/06/01 02:52:24;;;;;;;9.13;6.22;;;14.70;99.90;;;;;;4591717;19;20007;-26
2023/06/01 02:53:57;;;;;;;10.77;6.80;;;14.70;99.90;;;;;;4592247;19;20048;-26
2023/06/01 02:55:29;;;;;;;11.73;7.40;;;14.70;99.90;;;;;;4591695;19;20007;-24
2023/06/01 02:57:01;;;;;;;15.25;9.05;;;14.70;99.90;;;;;;4592370;19;20396;-28
2023/06/01 02:58:34;;;;;;;16.77;8.70;;;14.70;99.90;;;;;;4591361;19;20023;-27
2023/06/01 03:00:15;;;;;;;;;;;14.70;99.90;;;;;;4593013;19;20121;-23
2023/06/01 03:01:48;;;;;;;20.42;10.77;;;14.70;99.90;;;;;;4592869;19;20314;-28
2023/06/01 03:03:19;;;;;;;19.73;11.60;;;14.70;99.90;;;;;;4592705;19;20360;-25
2023/06/01 03:04:52;;;;;;;20.73;11.53;;;14.70;99.90;;;;;;4592178;19;20488;-27
2023/06/01 03:06:31;;;;;;;16.50;9.63;;;14.70;99.90;;;;;;4592373;19;20363;-27
2023/06/01 03:08:02;;;;;;;16.07;9.17;;;14.70;99.90;;;;;;4589842;19;20085;-23
2023/06/01 03:09:34;;;;;;;15.97;8.37;;;14.70;99.90;;;;;;4590806;19;20423;-23
2023/06/01 03:11:08;;;;;;;15.07;9.70;;;14.70;99.90;;;;;;4592043;19;20038;-23
2023/06/01 03:12:40;;;;;;;13.90;7.73;;;14.70;99.90;;;;;;4592540;19;20031;-28
2023/06/01 03:14:11;;;;;;;;;;;14.70;99.90;;;;;;4593502;19;20362;-24
2023/06/01 03:15:43;;;;;;;;;;;14.70;99.90;;;;;;4592120;19;19982;-23
2023/06/01 03:17:15;;;;;;;12.43;7.57;;;14.70;99.90;;;;;;4592011;19;19907;-23
2023/06/01 03:18:47;;;;;;;11.70;6.73;;;14.70;99.90;;;;;;4591115;19;20024;-28
2023/06/01 03:20:20;;;;;;;12.00;7.05;;;14.70;99.90;;;;;;4591822;19;19999;-23
2023/06/01 03:21:51;;;;;;;10.15;6.70;;;14.70;99.90;;;;;;4591616;19;20532;-24
2023/06/01 03:23:25;;;;;;;10.38;6.50;;;14.70;99.90;;;;;;4590002;19;20019;-25
2023/06/01 03:24:57;;;;;;;9.73;6.27;;;14.80;99.90;;;;;;4592080;19;20025;-28
2023/06/01 03:26:29;;;;;;;7.10;4.70;;;14.80;99.90;;;;;;4592517;19;20031;-23
2023/06/01 03:28:01;;;;;;;7.18;4.63;;;14.80;99.90;;;;;;4591915;19;20109;-29
2023/06/01 03:29:32;;;;;;;7.05;4.80;;;14.80;99.90;;;;;;4590827;19;20373;-25
2023/06/01 03:31:04;;;;;;;7.80;4.95;;;14.80;99.90;;;;;;4591782;19;19999;-24
2023/06/01 03:32:39;;;;;;;8.50;5.00;;;14.80;99.90;;;;;;4592331;19;20007;-27
2023/06/01 03:34:12;;;;;;;6.43;4.30;;;14.80;99.90;;;;;;4591632;19;20021;-23
2023/06/01 03:35:44;;;;;;;7.20;4.53;;;14.80;99.90;;;;;;4591243;19;20074;-24
2023/06/01 03:37:16;;;;;;;7.28;4.50;;;14.80;99.90;;;;;;4590566;19;20074;-28
2023/06/01 03:38:48;;;;;;;8.07;5.00;;;14.80;99.90;;;;;;4591310;19;20038;-23
2023/06/01 03:40:19;;;;;;;6.22;4.25;;;14.80;99.90;;;;;;4591584;19;20014;-25
2023/06/01 03:41:51;;;;;;;6.35;4.43;;;14.90;99.90;;;;;;4590690;19;20403;-23
2023/06/01 03:43:22;;;;;;;7.32;5.00;;;14.90;99.90;;;;;;4591116;19;20006;-25
2023/06/01 03:44:53;;;;;;;7.23;5.40;;;14.90;99.90;;;;;;4589112;19;20010;-24
2023/06/01 03:46:25;;;;;;;8.18;5.32;;;14.90;99.90;;;;;;4590864;19;20014;-23
2023/06/01 03:47:58;;;;;;;7.70;4.70;;;14.90;99.90;;;;;;4590214;19;20020;-24
2023/06/01 03:49:30;;;;;;;6.22;4.47;;;15.00;99.90;;;;;;4590317;19;20015;-25
2023/06/01 03:51:02;;;;;;;;;;;15.00;99.90;;;;;;4591580;19;20026;-23
2023/06/01 03:52:34;;;;;;;7.05;3.92;;;15.10;99.90;;;;;;4590443;19;19923;-24
2023/06/01 03:54:06;;;;;;;6.00;3.70;;;15.10;99.90;;;;;;4590843;19;20575;-27
2023/06/01 03:55:38;;;;;;;;;;;15.10;99.90;;;;;;4591675;19;20014;-24
2023/06/01 03:57:10;;;;;;;6.13;3.75;;;15.20;99.90;;;;;;4591181;19;20377;-23
2023/06/01 03:58:43;;;;;;;7.57;4.03;;;15.20;99.90;;;;;;4590078;19;20039;-24
2023/06/01 04:00:17;;;;;;;6.50;4.20;;;15.20;99.90;;;;;;4590599;19;20022;-27
2023/06/01 04:01:51;;;;;;;7.32;4.30;;;15.20;99.90;;;;;;4591062;19;20015;-25
2023/06/01 04:03:24;;;;;;;6.22;4.28;;;15.30;99.90;;;;;;4590930;19;20018;-24
2023/06/01 04:04:56;;;;;;;7.25;4.40;;;15.20;99.90;;;;;;4590957;19;20019;-25
2023/06/01 04:06:29;;;;;;;5.97;4.43;;;15.20;99.90;;;;;;4591540;19;20018;-23
2023/06/01 04:08:00;;;;;;;6.45;4.70;;;15.30;99.90;;;;;;4590024;19;20088;-26
2023/06/01 04:09:33;;;;;;;8.18;5.03;;;15.30;99.90;;;;;;4589818;19;20021;-22
2023/06/01 04:11:06;;;;;;;7.03;3.80;;;15.30;99.90;;;;;;4589797;19;20031;-22
2023/06/01 04:12:40;;;;;;;8.63;4.70;;;15.30;99.90;;;;;;4590825;19;20006;-25
2023/06/01 04:14:12;;;;;;;6.57;3.45;;;15.40;99.90;;;;;;4591267;19;20070;-25
2023/06/01 04:15:46;;;;;;;6.25;3.97;;;15.30;99.90;;;;;;4590022;19;20019;-24
2023/06/01 04:17:19;;;;;;;6.40;4.32;;;15.40;99.90;;;;;;4591171;19;20014;-26
2023/06/01 04:18:53;;;;;;;6.47;3.80;;;15.40;99.90;;;;;;4589458;19;20019;-25
2023/06/01 04:20:25;;;;;;;7.70;4.40;;;15.40;99.90;;;;;;4590421;19;20016;-24
2023/06/01 04:21:59;;;;;;;5.55;3.25;;;15.40;99.90;;;;;;4590823;19;20014;-23
2023/06/01 04:23:31;;;;;;;5.40;3.90;;;15.40;99.90;;;;;;4589139;19;20010;-25
2023/06/01 04:25:08;;;;;;;8.02;4.47;;;15.40;99.90;;;;;;4592288;19;20016;-24
2023/06/01 04:26:40;;;;;;;6.93;4.93;;;15.40;99.90;;;;;;4590055;19;20011;-24
2023/06/01 04:28:12;;;;;;;8.18;5.65;;;15.40;99.90;;;;;;4589696;19;20034;-24
2023/06/01 04:29:44;;;;;;;7.95;5.47;;;15.40;99.90;;;;;;4590388;19;20469;-26
2023/06/01 04:31:18;;;;;;;7.85;5.28;;;15.40;99.90;;;;;;4589586;19;20077;-23
2023/06/01 04:32:50;;;;;;;7.28;4.57;;;15.50;99.90;;;;;;4589254;19;20025;-25
2023/06/01 04:34:23;;;;;;;8.00;5.30;;;15.40;99.90;;;;;;4589645;19;20066;-25
2023/06/01 04:35:55;;;;;;;7.70;4.82;;;15.50;99.90;;;;;;4589614;19;20366;-23
2023/06/01 04:37:28;;;;;;;6.82;5.05;;;15.50;99.90;;;;;;4591086;19;20012;-25
2023/06/01 04:39:04;;;;;;;7.28;5.13;;;15.60;99.90;;;;;;4589799;19;20021;-27
2023/06/01 04:40:35;;;;;;;6.63;4.68;;;15.60;99.90;;;;;;4590034;19;20066;-24
2023/06/01 04:42:08;;;;;;;6.63;4.65;;;15.60;99.90;;;;;;4589150;19;20010;-25
2023/06/01 04:43:40;;;;;;;9.82;5.72;;;15.60;99.90;;;;;;4590114;19;20483;-23
2023/06/01 04:45:13;;;;;;;8.23;5.20;;;15.60;99.90;;;;;;4589129;19;20010;-24
2023/06/01 04:46:46;;;;;;;7.18;4.63;;;15.60;99.90;;;;;;4589776;19;20481;-25
2023/06/01 04:48:20;;;;;;;6.97;4.35;;;15.70;99.90;;;;;;4590398;19;20006;-24
2023/06/01 04:49:52;;;;;;;8.57;4.53;;;15.70;99.90;;;;;;4590171;19;20027;-24
2023/06/01 04:51:25;;;;;;;6.20;4.40;;;15.70;99.90;;;;;;4590141;19;20018;-24
2023/06/01 04:52:56;;;;;;;6.82;4.82;;;15.70;99.90;;;;;;4590120;19;20043;-26
2023/06/01 04:54:27;;;;;;;7.45;4.40;;;15.70;99.90;;;;;;4591013;19;20330;-25
2023/06/01 04:56:00;;;;;;;6.38;4.57;;;15.70;99.90;;;;;;4588671;19;20015;-24
2023/06/01 04:57:34;;;;;;;6.93;5.05;;;15.70;99.90;;;;;;4589576;19;20002;-22
2023/06/01 04:59:06;;;;;;;5.47;3.53;;;15.70;99.90;;;;;;4588911;19;20014;-25
2023/06/01 05:00:39;;;;;;;6.18;3.95;;;15.70;99.90;;;;;;4589824;19;20009;-24
2023/06/01 05:02:12;;;;;;;7.20;3.80;;;15.80;99.90;;;;;;4590276;19;20044;-24
2023/06/01 05:03:45;;;;;;;5.47;3.50;;;15.80;99.90;;;;;;4587336;19;20050;-27
2023/06/01 05:05:18;;;;;;;6.63;3.45;;;15.80;99.90;;;;;;4588383;19;20014;-27
2023/06/01 05:06:52;;;;;;;8.98;4.32;;;15.80;99.90;;;;;;4588547;19;20037;-27
2023/06/01 05:08:24;;;;;;;6.95;3.58;;;15.80;99.90;;;;;;4588791;19;20014;-24
2023/06/01 05:10:03;;;;;;;5.75;3.80;;;15.80;99.90;;;;;;4588681;19;20017;-23
2023/06/01 05:11:36;;;;;;;7.05;3.70;;;15.80;99.90;;;;;;4589599;19;20017;-23
2023/06/01 05:13:08;;;;;;;6.50;4.55;;;15.90;99.90;;;;;;4589929;19;20369;-24
2023/06/01 05:14:40;;;;;;;6.35;3.83;;;15.90;99.90;;;;;;4590006;19;20027;-23
2023/06/01 05:16:12;;;;;;;6.07;3.83;;;15.90;99.90;;;;;;4588809;19;20484;-24
2023/06/01 05:17:45;;;;;;;7.18;4.20;;;15.90;99.90;;;;;;4588311;19;20027;-25
2023/06/01 05:19:18;;;;;;;7.03;4.03;;;15.90;99.90;;;;;;4589733;19;20003;-25
2023/06/01 05:20:50;;;;;;;5.90;3.80;;;15.90;99.90;;;;;;4589967;19;20003;-23
2023/06/01 05:22:21;;;;;;;;;;;16.00;99.90;;;;;;4590615;19;20011;-25
2023/06/01 05:23:54;;;;;;;6.60;3.92;;;16.00;99.90;;;;;;4589658;19;19961;-25
2023/06/01 05:25:29;;;;;;;6.50;3.28;;;16.00;99.90;;;;;;4588330;19;20533;-24
2023/06/01 05:27:01;;;;;;;6.38;3.63;;;16.00;99.90;;;;;;4589128;19;20318;-25
2023/06/01 05:28:33;;;;;;;;;;;16.00;99.90;;;;;;4589304;19;20029;-27
2023/06/01 05:30:05;;;;;;;4.90;3.80;;;16.10;99.90;;;;;;4589743;19;19939;-24
2023/06/01 05:31:38;;;;;;;6.40;2.90;;;16.10;99.90;;;;;;4590462;19;20066;-24
2023/06/01 05:33:10;;;;;;;5.93;3.80;;;16.10;99.90;;;;;;4589260;19;20480;-26
2023/06/01 05:34:42;;;;;;;5.72;3.38;;;16.10;99.90;;;;;;4588504;19;20011;-27
2023/06/01 05:36:15;;;;;;;7.45;3.50;;;16.10;99.90;;;;;;4588192;19;20039;-25
2023/06/01 05:37:47;;;;;;;5.18;3.17;;;16.20;99.90;;;;;;4589890;19;20354;-23
2023/06/01 05:39:18;;;;;;;5.07;3.10;;;16.20;99.90;;;;;;4589633;19;20363;-24
2023/06/01 05:40:49;;;;;;;5.85;3.33;;;16.20;99.90;;;;;;4589604;19;20416;-28
2023/06/01 05:42:21;;;;;;;5.28;2.95;;;16.30;99.90;;;;;;4588631;19;20021;-24
2023/06/01 05:43:52;;;;;;;6.22;2.83;;;16.30;99.90;;;;;;4588209;19;20025;-24
2023/06/01 05:45:24;;;;;;;4.47;2.95;;;16.30;99.90;;;;;;4588178;19;20015;-25
2023/06/01 05:46:57;;;;;;;7.47;3.13;;;16.30;99.90;;;;;;4591979;19;20010;-25
2023/06/01 05:48:30;;;;;;;5.90;3.72;;;16.30;99.90;;;;;;4593230;19;20007;-26
2023/06/01 05:50:04;;;;;;;5.75;3.45;;;16.30;99.90;;;;;;4593700;19;20498;-26
2023/06/01 05:51:37;;;;;;;4.95;3.00;;;16.30;99.90;;;;;;4593686;19;20507;-23
2023/06/01 05:53:10;;;;;;;5.15;3.20;;;16.30;99.90;;;;;;4594056;19;20078;-24
2023/06/01 05:54:43;;;;;;;4.45;3.00;;;16.40;99.90;;;;;;4594326;19;20058;-26
2023/06/01 05:56:16;;;;;;;5.22;3.17;;;16.40;99.90;;;;;;4592108;19;20009;-24
2023/06/01 05:57:48;;;;;;;5.65;3.30;;;16.40;99.90;;;;;;4593290;19;20031;-24
2023/06/01 05:59:24;;;;;;;5.07;3.15;;;16.40;99.90;;;;;;4594392;19;20062;-24
2023/06/01 06:00:56;;;;;;;5.28;2.97;;;16.40;99.90;;;;;;4592154;19;20018;-24
2023/06/01 06:02:27;;;;;;;5.15;3.30;;;16.40;99.90;;;;;;4593138;19;20015;-24
2023/06/01 06:03:59;;;;;;;5.45;3.00;;;16.50;99.90;;;;;;4592486;19;20011;-25
2023/06/01 06:05:31;;;;;;;4.35;2.72;;;16.50;99.90;;;;;;4592129;19;20596;-25
2023/06/01 06:07:05;;;;;;;4.35;3.17;;;16.50;99.90;;;;;;4592524;19;20034;-24
2023/06/01 06:08:38;;;;;;;4.68;3.10;;;16.50;99.90;;;;;;4591051;19;20548;-28
2023/06/01 06:10:10;;;;;;;4.53;2.75;;;16.50;99.90;;;;;;4592485;19;20498;-26
2023/06/01 06:11:44;;;;;;;4.90;2.90;;;16.50;99.90;;;;;;4592827;19;20010;-25
2023/06/01 06:13:15;;;;;;;5.60;3.60;;;16.60;99.90;;;;;;4592617;19;20010;-24
2023/06/01 06:14:48;;;;;;;4.40;2.97;;;16.50;99.90;;;;;;4592640;19;20015;-24
2023/06/01 06:16:21;;;;;;;6.03;3.40;;;16.60;99.90;;;;;;4593584;19;20083;-27
2023/06/01 06:17:55;;;;;;;7.25;3.97;;;16.60;99.90;;;;;;4593729;19;20043;-25
2023/06/01 06:19:26;;;;;;;5.32;2.97;;;16.60;99.90;;;;;;4593674;19;20006;-25
2023/06/01 06:20:57;;;;;;;4.80;3.15;;;16.60;99.90;;;;;;4593111;19;20011;-27
2023/06/01 06:22:28;;;;;;;4.47;2.80;;;16.60;99.90;;;;;;4591982;19;20078;-25
2023/06/01 06:24:01;;;;;;;6.20;3.55;;;16.60;99.90;;;;;;4593299;19;20010;-24
2023/06/01 06:25:32;;;;;;;5.85;3.42;;;16.60;99.90;;;;;;4593339;19;20010;-25
2023/06/01 06:27:03;;;;;;;5.72;2.92;;;16.70;99.90;;;;;;4593084;19;20039;-26
2023/06/01 06:28:35;;;;;;;;;;;16.70;99.90;;;;;;4594386;19;20021;-26
2023/06/01 06:30:07;;;;;;;4.45;2.58;;;16.70;99.90;;;;;;4592166;19;19914;-24
2023/06/01 06:31:39;;;;;;;6.40;2.97;;;16.70;99.90;;;;;;4592522;19;20039;-29
2023/06/01 06:33:12;;;;;;;6.57;3.72;;;16.70;99.90;;;;;;4592742;19;20050;-29
2023/06/01 06:34:44;;;;;;;4.97;3.08;;;16.70;99.90;;;;;;4593363;19;20017;-25
2023/06/01 06:36:16;;;;;;;7.13;3.92;;;16.70;99.90;;;;;;4590620;19;20014;-28
2023/06/01 06:37:49;;;;;;;6.18;3.80;;;16.80;99.90;;;;;;4592460;19;20472;-24
2023/06/01 06:39:21;;;;;;;6.03;3.58;;;16.80;99.90;;;;;;4592627;19;20014;-23
2023/06/01 06:40:52;;;;;;;4.57;3.00;;;16.80;99.90;;;;;;4590212;19;20464;-25
2023/06/01 06:42:24;;;;;;;7.60;3.78;;;16.80;99.90;;;;;;4592753;19;20074;-25
2023/06/01 06:43:57;;;;;;;6.40;3.70;;;16.80;99.90;;;;;;4591243;19;20066;-24
2023/06/01 06:45:30;;;;;;;6.35;3.17;;;16.80;99.90;;;;;;4591966;19;20349;-25
2023/06/01 06:47:02;;;;;;;5.57;2.97;;;16.80;99.90;;;;;;4593138;19;20010;-27
2023/06/01 06:48:33;;;;;;;4.68;2.95;;;16.80;99.90;;;;;;4593191;19;20014;-22
2023/06/01 06:50:08;;;;;;;5.50;2.83;;;16.80;99.90;;;;;;4592450;19;20015;-24
2023/06/01 06:51:39;;;;;;;5.70;3.00;;;16.90;99.90;;;;;;4592453;19;20022;-25
2023/06/01 06:53:12;;;;;;;5.65;2.95;;;16.90;99.90;;;;;;4591727;19;20002;-24
2023/06/01 06:54:45;;;;;;;5.60;3.72;;;16.90;99.90;;;;;;4592492;19;20014;-28
2023/06/01 06:56:18;;;;;;;5.45;3.42;;;16.90;99.90;;;;;;4590967;19;20025;-27
2023/06/01 06:57:50;;;;;;;6.53;3.95;;;17.00;99.90;;;;;;4591314;19;20018;-26
2023/06/01 06:59:22;;;;;;;5.10;3.17;;;17.00;99.90;;;;;;4592281;19;20018;-24
2023/06/01 07:00:54;;;;;;;6.20;3.67;;;17.00;99.90;;;;;;4592963;19;20023;-27
2023/06/01 07:02:26;;;;;;;4.38;3.10;;;17.00;99.90;;;;;;4592393;19;20015;-25
2023/06/01 07:03:57;;;;;;;;;;;17.00;99.90;;;;;;4593519;19;20028;-24
2023/06/01 07:05:29;;;;;;;3.97;2.63;;;17.00;99.90;;;;;;4593170;19;20223;-22
2023/06/01 07:07:03;;;;;;;5.85;3.35;;;17.00;99.90;;;;;;4592413;19;20011;-25
2023/06/01 07:08:35;;;;;;;4.97;3.35;;;17.00;99.90;;;;;;4591310;19;20038;-25
2023/06/01 07:10:07;;;;;;;7.13;3.33;;;17.00;99.90;;;;;;4592823;19;20014;-26
2023/06/01 07:11:42;;;;;;;5.95;3.30;;;17.10;99.90;;;;;;4591563;19;20031;-23
2023/06/01 07:13:13;;;;;;;5.68;3.60;;;17.10;99.90;;;;;;4590722;19;20508;-29
2023/06/01 07:14:45;;;;;;;;;;;17.10;99.90;;;;;;4592764;19;20015;-25
2023/06/01 07:16:16;;;;;;;5.00;3.35;;;17.10;99.90;;;;;;4591058;19;19921;-27
2023/06/01 07:17:50;;;;;;;6.30;3.40;;;17.10;99.90;;;;;;4592268;19;20468;-24
2023/06/01 07:19:22;;;;;;;5.57;3.47;;;17.20;99.90;;;;;;4589340;19;20014;-25
2023/06/01 07:20:55;;;;;;;7.20;3.17;;;17.20;99.90;;;;;;4591419;19;20025;-24
2023/06/01 07:22:27;;;;;;;5.32;3.60;;;17.20;99.90;;;;;;4590313;19;20013;-24
2023/06/01 07:23:59;;;;;;;5.32;3.40;;;17.20;99.90;;;;;;4590784;19;20078;-25
2023/06/01 07:25:30;;;;;;;9.20;3.78;;;17.20;99.90;;;;;;4590698;19;20044;-24
2023/06/01 07:27:03;;;;;;;5.57;3.25;;;17.20;99.90;;;;;;4591724;19;20353;-22
2023/06/01 07:28:35;;;;;;;5.80;2.97;;;17.20;99.90;;;;;;4590723;19;20496;-26
2023/06/01 07:30:08;;;;;;;5.95;2.50;;;17.30;99.90;;;;;;4593489;19;20402;-25
2023/06/01 07:31:40;;;;;;;3.70;2.33;;;17.30;99.90;;;;;;4591565;19;20027;-26
2023/06/01 07:33:12;;;;;;;4.32;2.60;;;17.30;99.90;;;;;;4591713;19;20040;-27
2023/06/01 07:34:43;;;;;;;5.72;3.05;;;17.30;99.90;;;;;;4592036;19;20022;-24
2023/06/01 07:36:18;;;;;;;6.13;2.72;;;17.30;99.90;;;;;;4589233;19;20015;-25
2023/06/01 07:37:49;;;;;;;6.25;3.22;;;17.30;99.90;;;;;;4591154;19;20407;-25
2023/06/01 07:39:20;;;;;;;5.85;3.17;;;17.30;99.90;;;;;;4591807;19;20356;-26
2023/06/01 07:40:52;;;;;;;4.78;2.90;;;17.40;99.90;;;;;;4592245;19;20015;-24
2023/06/01 07:42:23;;;;;;;4.68;3.40;;;17.40;99.90;;;;;;4591500;19;20018;-23
2023/06/01 07:43:55;;;;;;;5.15;2.95;;;17.40;99.90;;;;;;4591501;19;20011;-23
2023/06/01 07:45:26;;;;;;;4.90;2.72;;;17.40;99.90;;;;;;4591509;19;20018;-25
2023/06/01 07:46:57;;;;;;;;;;;17.40;99.90;;;;;;4592955;19;20006;-28
2023/06/01 07:48:28;;;;;;;6.05;4.20;;;17.40;99.90;;;;;;4591038;19;19918;-24
2023/06/01 07:50:02;;;;;;;5.70;3.63;;;17.50;99.90;;;;;;4590943;19;20019;-27
2023/06/01 07:51:36;;;;;;;5.25;2.97;;;17.50;99.90;;;;;;4591330;19;20022;-26
2023/06/01 07:53:08;;;;;;;5.68;2.90;;;17.50;99.90;;;;;;4591690;19;20024;-24
2023/06/01 07:54:39;;;;;;;5.50;3.22;;;17.50;99.90;;;;;;4589230;19;20015;-24
2023/06/01 07:56:11;;;;;;;;;;;17.50;99.90;;;;;;4592181;19;20025;-25
2023/06/01 07:57:43;;;;;;;4.82;3.08;;;17.50;99.90;;;;;;4590841;19;19923;-24
2023/06/01 07:59:14;;;;;;;;;;;17.50;99.90;;;;;;4592654;19;20066;-25
2023/06/01 08:00:46;;;;;;;4.97;3.00;;;17.50;99.90;;;;;;4590850;19;19933;-29
2023/06/01 08:02:17;;;;;;;5.25;2.90;;;17.50;99.90;;;;;;4589755;19;20015;-27
2023/06/01 08:03:48;;;;;;;4.00;2.65;;;17.50;99.90;;;;;;4589931;19;20022;-24
2023/06/01 08:05:22;;;;;;;5.07;2.90;;;17.60;99.90;;;;;;4590600;19;20367;-26
2023/06/01 08:06:53;;;;;;;4.70;2.85;;;17.60;99.90;;;;;;4590384;19;20021;-27
2023/06/01 08:08:25;;;;;;;4.38;2.85;;;17.60;99.90;;;;;;4589316;19;20021;-24